RUNWAY INFORMATION
Runway Length Width Elevation Displaced
Threshold
Heading | Runway Length Width Elevation Displaced
Threshold
Heading
04 10003 ft 151 ft 324 ft 0 ft 44 | 22 10003 ft 151 ft 348 ft 0 ft 224

 AIRPORT FREQUENCIES
Type APP Name Essex Rada Frequency 120.625 MHZ
Type ATIS Name ATIS Frequency 127.175 MHZ
Type CLD Name CLNC DEL Frequency 121.95 MHZ
Type DIR Name DIRECTOR Frequency 136.2 MHZ
Type GND Name GND Frequency 121.725 MHZ
Type RDR Name Director Frequency 136.2 MHZ
Type TWR Name TWR Frequency 123.8 MHZ

 AIRPORT NEAR NAVIGATION AIDS
Type VOR-DME Name Barkway Frequency 116250 KHZ
Type NDB Name Stansted Frequency 429 KHZ

 METAR AND TAF INFORMATION
METAR FOR EGSS
ADDS - METARS form results

(0831 UTC 06 October 2022)
Data provider http://aviationweather.gov/metar/data/
 
METAR text: EGSS 060820Z AUTO 22011KT 9999 NCD 10/08 Q1028
Conditions at: EGSS (STANSTED AIRPORT, GB) observed 0820 UTC 06 October 2022
Temperature: 10.0°C (50°F)
Dewpoint: 8.0°C (46°F) [RH = 87%]
Pressure (altimeter): 30.35 inches Hg (1028.0 mb)
Winds: from the SW (220 degrees) at 13 MPH (11 knots; 5.7 m/s)
Visibility: 6 or more miles (10+ km)
Ceiling: at least 12,000 feet AGL
Clouds: sky clear below 12,000 feet AGL
Weather: no significant weather observed at this time

METAR text: EGSS 060750Z AUTO 22009KT 9999 NCD 09/07 Q1028
Conditions at: EGSS (STANSTED AIRPORT, GB) observed 0750 UTC 06 October 2022
Temperature: 9.0°C (48°F)
Dewpoint: 7.0°C (45°F) [RH = 87%]
Pressure (altimeter): 30.35 inches Hg (1028.0 mb)
Winds: from the SW (220 degrees) at 10 MPH (9 knots; 4.6 m/s)
Visibility: 6 or more miles (10+ km)
Ceiling: at least 12,000 feet AGL
Clouds: sky clear below 12,000 feet AGL
Weather: no significant weather observed at this time

Forecast for: EGSS (STANSTED AIRPORT, GB)
Text: TAF EGSS 060453Z 0606/0712 22012KT 9999 FEW040
Forecast period: 0600 UTC 06 October 2022 to 1200 UTC 07 October 2022
Forecast type: FROM: standard forecast or significant change
Winds: from the SW (220 degrees) at 14 MPH (12 knots; 6.2 m/s)
Visibility: 6 or more miles (10+ km)
Ceiling: at least 12,000 feet AGL
Clouds: few clouds at 4000 feet AGL
Weather: no significant weather forecast for this period
Text: TEMPO 0709/0712 22017G27KT
Forecast period: 0900 to 1200 UTC 07 October 2022
Forecast type: TEMPORARY: The following changes expected for less than half the time period
Winds: from the SW (220 degrees) at 20 MPH (17 knots; 8.7 m/s)
gusting to 31 MPH (27 knots; 13.9 m/s)
Visibility: missing
Ceiling: unknown
Clouds: missing
Weather: no significant weather forecast for this period



© 2013 - 2022, FlightSimLog.org - Powered by Virtual Airlines Manager